Nearby METAR Reports

 

EGWC - Cosford Raf, United Kingdom
Distance from station: SSW 22km
Updated: 22/09/2021 13:50
NOT Current
Mostly cloudy
Mostly cloudy
 Wind from SW
Wind: SW 9 mph , 15 km/h
Temperature: 18°C
Dew Point: 12°C
Humidity: 68%
Barometer: 1027 hPa
Clouds: Mostly cloudy
Visibility: 6 miles , 10 km
Cloud details: Mostly cloudy 701 m
2021/09/22 12:50 EGWC 221250Z 22008KT 9999 BKN023 18/12 Q1027 RMK WHT
EGOS - Shawbury Raf, United Kingdom
Distance from station: W 37km
Updated: 22/09/2021 13:50
NOT Current
Mostly cloudy
Mostly cloudy
 Wind from WSW
Wind: WSW 14 mph , 22 km/h
Temperature: 20°C
Dew Point: 12°C
Humidity: 60%
Barometer: 1025 hPa
Clouds: Mostly cloudy
Visibility: 6 miles , 10 km
Cloud details: Mostly cloudy 914 m
2021/09/22 12:50 EGOS 221250Z 24012KT 9999 BKN030 20/12 Q1025 NOSIG RMK BLU BLU
 
EGBB - Birmingham Airpo, United Kingdom
Distance from station: SE 44km
Updated: 22/09/2021 13:50
NOT Current
Few Clouds
Few Clouds
 Wind from WSW
Wind: WSW 8 mph , 13 km/h
Temperature: 19°C
Dew Point: 12°C
Humidity: 64%
Barometer: 1026 hPa
Clouds: Few Clouds
Visibility: 6 miles , 10 km
Cloud details: Few Clouds 975 m
2021/09/22 12:50 EGBB 221250Z 25007KT 190V290 9999 FEW032 19/12 Q1026
EGNX - East Midlands, United Kingdom
Distance from station: E 54km
Updated: 22/09/2021 13:50
NOT Current
Few Clouds
Few Clouds
 Wind from W
Wind: W 10 mph , 17 km/h
Temperature: 19°C
Dew Point: 11°C
Humidity: 60%
Barometer: 1026 hPa
Clouds: Few Clouds
Visibility: 6 miles , 10 km
Cloud details: Few Clouds 1006 m
2021/09/22 12:50 EGNX 221250Z 26009KT 220V320 9999 FEW033 19/11 Q1026
 
EGCC - Manchester Intl, United Kingdom
Distance from station: N 63km
Updated: 22/09/2021 13:50
NOT Current
Mostly cloudy
Mostly cloudy
 Wind from W
Wind: W 10 mph , 17 km/h
Temperature: 18°C
Dew Point: 14°C
Humidity: 78%
Barometer: 1025 hPa
Clouds: Mostly cloudy
Visibility: 6 miles , 10 km
Cloud details: Mostly cloudy 640 m
2021/09/22 12:50 EGCC 221250Z AUTO 26009KT 9999 BKN021 18/14 Q1025
EGBE - Coventry Airport, United Kingdom
Distance from station: SE 65km
Updated: 18/07/2017 14:50
NOT Current
Clear
Clear
 Wind from E
Wind: E 16 mph , 26 km/h
Temperature: 27°C
Heat Index: 27°C
Dew Point: 14°C
Humidity: 45%
Barometer: 1015 hPa
Summary: Clear
Visibility: greater than 7 miles , 10 km
2017/07/18 13:50 EGBE 181350Z 10014KT 060V120 CAVOK 27/14 Q1015
 
EGNR - Hawarden (aut), United Kingdom
Distance from station: NW 70km
Updated: 22/09/2021 13:50
NOT Current
Partly cloudy
Partly cloudy
 Wind from SW
Wind: SW 16 mph , 26 km/h
Temperature: 19°C
Dew Point: 12°C
Humidity: 64%
Barometer: 1026 hPa
Clouds: Partly cloudy
Visibility: 6 miles , 10 km
Cloud details: Few Clouds 610 m
Partly cloudy 853 m
2021/09/22 12:50 EGNR 221250Z 22014KT 9999 FEW020 SCT028 19/12 Q1026
EGGP - Liverpool Airpor, United Kingdom
Distance from station: NW 76km
Updated: 22/09/2021 13:50
NOT Current
Partly cloudy
Partly cloudy
 Wind from W
Wind: W 7 mph , 11 km/h
Temperature: 19°C
Dew Point: 15°C
Humidity: 78%
Barometer: 1025 hPa
Clouds: Partly cloudy
Visibility: 6 miles , 10 km
Cloud details: Partly cloudy 671 m
2021/09/22 12:50 EGGP 221250Z 27006KT 250V330 9999 SCT022 19/15 Q1025